sensor_id;sensor_type;location;lat;lon;timestamp;pressure;altitude;pressure_sealevel;temperature;humidity
8653;BME280;4364;52.426;9.424;2022-09-20T00:01:02;101410.38;;;9.04;100.00
8653;BME280;4364;52.426;9.424;2022-09-20T00:03:29;101411.81;;;9.12;100.00
8653;BME280;4364;52.426;9.424;2022-09-20T00:06:00;101412.56;;;9.07;100.00
8653;BME280;4364;52.426;9.424;2022-09-20T00:08:28;101410.88;;;9.01;100.00
8653;BME280;4364;52.426;9.424;2022-09-20T00:11:15;101411.03;;;8.94;100.00
8653;BME280;4364;52.426;9.424;2022-09-20T00:13:43;101418.34;;;8.94;100.00
8653;BME280;4364;52.426;9.424;2022-09-20T00:16:13;101416.22;;;8.96;100.00
8653;BME280;4364;52.426;9.424;2022-09-20T00:18:41;101416.78;;;8.98;100.00
8653;BME280;4364;52.426;9.424;2022-09-20T00:21:16;101419.91;;;8.89;100.00
8653;BME280;4364;52.426;9.424;2022-09-20T00:23:43;101417.94;;;8.85;100.00
8653;BME280;4364;52.426;9.424;2022-09-20T00:26:11;101421.75;;;8.84;100.00
8653;BME280;4364;52.426;9.424;2022-09-20T00:28:40;101414.09;;;8.81;100.00
8653;BME280;4364;52.426;9.424;2022-09-20T00:31:07;101414.09;;;8.81;100.00
8653;BME280;4364;52.426;9.424;2022-09-20T00:33:33;101405.38;;;8.79;100.00
8653;BME280;4364;52.426;9.424;2022-09-20T00:36:19;101411.63;;;8.79;100.00
8653;BME280;4364;52.426;9.424;2022-09-20T00:38:46;101406.63;;;8.71;100.00
8653;BME280;4364;52.426;9.424;2022-09-20T00:41:13;101418.59;;;8.75;100.00
8653;BME280;4364;52.426;9.424;2022-09-20T00:43:44;101418.69;;;8.63;100.00
8653;BME280;4364;52.426;9.424;2022-09-20T00:48:55;101413.41;;;8.57;100.00
8653;BME280;4364;52.426;9.424;2022-09-20T00:51:27;101414.25;;;8.57;100.00
8653;BME280;4364;52.426;9.424;2022-09-20T00:53:59;101419.44;;;8.59;100.00
8653;BME280;4364;52.426;9.424;2022-09-20T00:56:30;101418.03;;;8.56;100.00
8653;BME280;4364;52.426;9.424;2022-09-20T00:59:07;101425.28;;;8.67;100.00
8653;BME280;4364;52.426;9.424;2022-09-20T01:01:36;101424.03;;;8.58;100.00
8653;BME280;4364;52.426;9.424;2022-09-20T01:04:03;101423.03;;;8.47;100.00
8653;BME280;4364;52.426;9.424;2022-09-20T01:06:31;101422.31;;;8.40;100.00
8653;BME280;4364;52.426;9.424;2022-09-20T01:09:00;101429.75;;;8.45;100.00
8653;BME280;4364;52.426;9.424;2022-09-20T01:11:29;101429.88;;;8.38;100.00
8653;BME280;4364;52.426;9.424;2022-09-20T01:13:56;101437.06;;;8.44;100.00
8653;BME280;4364;52.426;9.424;2022-09-20T01:16:24;101433.31;;;8.33;100.00
8653;BME280;4364;52.426;9.424;2022-09-20T01:18:54;101426.75;;;8.29;100.00
8653;BME280;4364;52.426;9.424;2022-09-20T01:21:23;101432.75;;;8.31;100.00
8653;BME280;4364;52.426;9.424;2022-09-20T01:24:04;101439.50;;;8.29;100.00
8653;BME280;4364;52.426;9.424;2022-09-20T01:26:47;101431.59;;;8.27;100.00
8653;BME280;4364;52.426;9.424;2022-09-20T01:32:24;101434.00;;;8.24;100.00
8653;BME280;4364;52.426;9.424;2022-09-20T01:34:58;101437.50;;;8.24;100.00
8653;BME280;4364;52.426;9.424;2022-09-20T01:37:44;101432.91;;;8.25;100.00
8653;BME280;4364;52.426;9.424;2022-09-20T01:40:36;101430.19;;;8.25;100.00
8653;BME280;4364;52.426;9.424;2022-09-20T01:43:17;101439.66;;;8.22;100.00
8653;BME280;4364;52.426;9.424;2022-09-20T01:45:47;101439.66;;;8.22;100.00
8653;BME280;4364;52.426;9.424;2022-09-20T01:48:38;101431.50;;;8.22;100.00
8653;BME280;4364;52.426;9.424;2022-09-20T01:51:24;101442.59;;;8.21;100.00
8653;BME280;4364;52.426;9.424;2022-09-20T01:57:12;101442.03;;;8.19;100.00
8653;BME280;4364;52.426;9.424;2022-09-20T02:00:03;101448.59;;;8.23;100.00
8653;BME280;4364;52.426;9.424;2022-09-20T02:02:34;101452.84;;;8.19;100.00
8653;BME280;4364;52.426;9.424;2022-09-20T02:05:49;101446.69;;;8.23;100.00
8653;BME280;4364;52.426;9.424;2022-09-20T02:13:53;101443.66;;;8.20;100.00
8653;BME280;4364;52.426;9.424;2022-09-20T02:19:25;101442.97;;;8.12;100.00
8653;BME280;4364;52.426;9.424;2022-09-20T02:24:43;101443.38;;;8.04;100.00
8653;BME280;4364;52.426;9.424;2022-09-20T02:30:18;101448.13;;;7.97;100.00
8653;BME280;4364;52.426;9.424;2022-09-20T02:36:05;101464.31;;;8.09;100.00
8653;BME280;4364;52.426;9.424;2022-09-20T02:39:16;101461.16;;;8.00;100.00
8653;BME280;4364;52.426;9.424;2022-09-20T02:47:34;101452.91;;;7.95;100.00
8653;BME280;4364;52.426;9.424;2022-09-20T03:02:05;101465.19;;;7.97;100.00
8653;BME280;4364;52.426;9.424;2022-09-20T03:05:07;101457.75;;;7.93;100.00
8653;BME280;4364;52.426;9.424;2022-09-20T03:08:03;101455.00;;;8.05;100.00
8653;BME280;4364;52.426;9.424;2022-09-20T03:11:11;101460.09;;;8.01;100.00
8653;BME280;4364;52.426;9.424;2022-09-20T03:13:53;101454.69;;;8.01;100.00
8653;BME280;4364;52.426;9.424;2022-09-20T03:22:25;101463.00;;;8.11;100.00
8653;BME280;4364;52.426;9.424;2022-09-20T03:27:50;101470.59;;;8.26;100.00
8653;BME280;4364;52.426;9.424;2022-09-20T03:33:04;101475.38;;;8.36;100.00
8653;BME280;4364;52.426;9.424;2022-09-20T03:38:32;101477.28;;;8.35;100.00
8653;BME280;4364;52.426;9.424;2022-09-20T03:44:37;101479.91;;;8.30;100.00
8653;BME280;4364;52.426;9.424;2022-09-20T03:47:20;101473.88;;;8.28;100.00
8653;BME280;4364;52.426;9.424;2022-09-20T04:06:17;101485.47;;;8.24;100.00
8653;BME280;4364;52.426;9.424;2022-09-20T04:09:08;101495.78;;;8.27;100.00
8653;BME280;4364;52.426;9.424;2022-09-20T04:11:52;101495.78;;;8.27;100.00
8653;BME280;4364;52.426;9.424;2022-09-20T04:14:40;101489.59;;;8.14;100.00
8653;BME280;4364;52.426;9.424;2022-09-20T04:17:48;101493.38;;;8.13;100.00
8653;BME280;4364;52.426;9.424;2022-09-20T04:20:42;101497.97;;;8.13;100.00
8653;BME280;4364;52.426;9.424;2022-09-20T04:26:14;101503.19;;;8.03;100.00
8653;BME280;4364;52.426;9.424;2022-09-20T04:28:50;101498.00;;;8.01;100.00
8653;BME280;4364;52.426;9.424;2022-09-20T04:33:50;101501.78;;;8.00;100.00
8653;BME280;4364;52.426;9.424;2022-09-20T04:36:36;101500.00;;;8.06;100.00
8653;BME280;4364;52.426;9.424;2022-09-20T04:39:48;101504.84;;;8.04;100.00
8653;BME280;4364;52.426;9.424;2022-09-20T04:43:00;101506.00;;;8.08;100.00
8653;BME280;4364;52.426;9.424;2022-09-20T04:45:51;101508.22;;;8.11;100.00
8653;BME280;4364;52.426;9.424;2022-09-20T04:51:44;101511.28;;;8.14;100.00
8653;BME280;4364;52.426;9.424;2022-09-20T05:00:04;101519.84;;;8.23;100.00
8653;BME280;4364;52.426;9.424;2022-09-20T05:17:35;101540.66;;;8.46;100.00
8653;BME280;4364;52.426;9.424;2022-09-20T05:29:47;101554.38;;;8.57;100.00
8653;BME280;4364;52.426;9.424;2022-09-20T05:32:34;101549.31;;;8.60;100.00
8653;BME280;4364;52.426;9.424;2022-09-20T05:35:37;101556.88;;;8.58;100.00
8653;BME280;4364;52.426;9.424;2022-09-20T05:41:02;101557.88;;;8.69;100.00
8653;BME280;4364;52.426;9.424;2022-09-20T05:43:32;101562.97;;;8.65;100.00
8653;BME280;4364;52.426;9.424;2022-09-20T05:46:09;101558.78;;;8.75;100.00
8653;BME280;4364;52.426;9.424;2022-09-20T05:48:56;101561.25;;;8.76;100.00
8653;BME280;4364;52.426;9.424;2022-09-20T05:54:33;101576.09;;;8.85;100.00
8653;BME280;4364;52.426;9.424;2022-09-20T06:00:11;101583.81;;;8.94;100.00
8653;BME280;4364;52.426;9.424;2022-09-20T06:02:50;101587.69;;;8.98;100.00
8653;BME280;4364;52.426;9.424;2022-09-20T06:05:31;101588.91;;;9.07;100.00
8653;BME280;4364;52.426;9.424;2022-09-20T06:08:02;101597.66;;;9.09;100.00
8653;BME280;4364;52.426;9.424;2022-09-20T06:16:57;101600.53;;;9.19;100.00
8653;BME280;4364;52.426;9.424;2022-09-20T06:19:40;101601.34;;;9.20;100.00
8653;BME280;4364;52.426;9.424;2022-09-20T06:22:16;101584.59;;;9.23;100.00
8653;BME280;4364;52.426;9.424;2022-09-20T06:27:21;101593.38;;;9.13;100.00
8653;BME280;4364;52.426;9.424;2022-09-20T06:29:52;101593.63;;;9.28;100.00
8653;BME280;4364;52.426;9.424;2022-09-20T06:32:21;101601.13;;;9.21;100.00
8653;BME280;4364;52.426;9.424;2022-09-20T06:34:47;101597.91;;;9.24;100.00
8653;BME280;4364;52.426;9.424;2022-09-20T06:37:25;101589.13;;;9.34;100.00
8653;BME280;4364;52.426;9.424;2022-09-20T06:40:27;101595.34;;;9.35;100.00
8653;BME280;4364;52.426;9.424;2022-09-20T06:43:15;101598.72;;;9.42;100.00
8653;BME280;4364;52.426;9.424;2022-09-20T06:45:42;101593.13;;;9.32;100.00
8653;BME280;4364;52.426;9.424;2022-09-20T06:48:15;101592.31;;;9.48;100.00
8653;BME280;4364;52.426;9.424;2022-09-20T06:50:41;101598.63;;;9.54;100.00
8653;BME280;4364;52.426;9.424;2022-09-20T06:53:17;101599.47;;;9.54;100.00
8653;BME280;4364;52.426;9.424;2022-09-20T06:55:44;101602.69;;;9.51;100.00
8653;BME280;4364;52.426;9.424;2022-09-20T06:58:11;101606.28;;;9.40;100.00
8653;BME280;4364;52.426;9.424;2022-09-20T07:00:39;101605.97;;;9.36;100.00
8653;BME280;4364;52.426;9.424;2022-09-20T07:03:05;101611.31;;;9.31;100.00
8653;BME280;4364;52.426;9.424;2022-09-20T07:05:32;101610.19;;;9.44;100.00
8653;BME280;4364;52.426;9.424;2022-09-20T07:07:59;101611.56;;;9.46;100.00
8653;BME280;4364;52.426;9.424;2022-09-20T07:10:30;101606.47;;;9.50;100.00
8653;BME280;4364;52.426;9.424;2022-09-20T07:12:57;101607.44;;;9.61;100.00
8653;BME280;4364;52.426;9.424;2022-09-20T07:15:29;101619.78;;;9.69;100.00
8653;BME280;4364;52.426;9.424;2022-09-20T07:17:56;101620.03;;;9.84;100.00
8653;BME280;4364;52.426;9.424;2022-09-20T07:20:22;101627.56;;;9.82;100.00
8653;BME280;4364;52.426;9.424;2022-09-20T07:22:49;101637.88;;;9.80;100.00
8653;BME280;4364;52.426;9.424;2022-09-20T07:25:15;101635.56;;;9.89;100.00
8653;BME280;4364;52.426;9.424;2022-09-20T07:27:45;101630.59;;;10.02;99.11
8653;BME280;4364;52.426;9.424;2022-09-20T07:30:16;101637.41;;;10.05;98.60
8653;BME280;4364;52.426;9.424;2022-09-20T07:32:43;101639.56;;;10.03;98.21
8653;BME280;4364;52.426;9.424;2022-09-20T07:35:11;101643.78;;;10.11;97.82
8653;BME280;4364;52.426;9.424;2022-09-20T07:37:38;101653.88;;;10.15;98.20
8653;BME280;4364;52.426;9.424;2022-09-20T07:40:08;101650.97;;;10.22;97.69
8653;BME280;4364;52.426;9.424;2022-09-20T07:42:35;101646.19;;;10.29;97.04
8653;BME280;4364;52.426;9.424;2022-09-20T07:45:04;101654.91;;;10.31;97.59
8653;BME280;4364;52.426;9.424;2022-09-20T07:47:32;101655.31;;;10.40;97.18
8653;BME280;4364;52.426;9.424;2022-09-20T07:50:02;101661.34;;;10.25;96.85
8653;BME280;4364;52.426;9.424;2022-09-20T07:52:29;101658.59;;;10.42;96.94
8653;BME280;4364;52.426;9.424;2022-09-20T07:54:55;101664.44;;;10.51;96.13
8653;BME280;4364;52.426;9.424;2022-09-20T07:57:22;101668.53;;;10.53;95.64
8653;BME280;4364;52.426;9.424;2022-09-20T07:59:49;101666.84;;;10.69;95.66
8653;BME280;4364;52.426;9.424;2022-09-20T08:02:15;101669.03;;;10.72;94.33
8653;BME280;4364;52.426;9.424;2022-09-20T08:04:42;101671.03;;;10.82;94.51
8653;BME280;4364;52.426;9.424;2022-09-20T08:07:09;101671.16;;;10.92;94.17
8653;BME280;4364;52.426;9.424;2022-09-20T08:09:36;101679.59;;;10.91;92.86
8653;BME280;4364;52.426;9.424;2022-09-20T08:12:02;101681.53;;;10.96;92.73
8653;BME280;4364;52.426;9.424;2022-09-20T08:14:50;101680.72;;;10.95;92.28
8653;BME280;4364;52.426;9.424;2022-09-20T08:17:17;101689.25;;;11.04;92.96
8653;BME280;4364;52.426;9.424;2022-09-20T08:19:44;101687.28;;;10.99;94.03
8653;BME280;4364;52.426;9.424;2022-09-20T08:22:11;101693.78;;;10.93;92.76
8653;BME280;4364;52.426;9.424;2022-09-20T08:24:38;101693.97;;;10.86;93.56
8653;BME280;4364;52.426;9.424;2022-09-20T08:27:05;101700.84;;;10.94;93.64
8653;BME280;4364;52.426;9.424;2022-09-20T08:29:31;101704.91;;;10.91;94.26
8653;BME280;4364;52.426;9.424;2022-09-20T08:31:58;101704.34;;;10.89;93.30
8653;BME280;4364;52.426;9.424;2022-09-20T08:34:28;101706.16;;;10.84;94.16
8653;BME280;4364;52.426;9.424;2022-09-20T08:36:54;101704.28;;;10.84;94.31
8653;BME280;4364;52.426;9.424;2022-09-20T08:39:22;101704.59;;;10.88;95.27
8653;BME280;4364;52.426;9.424;2022-09-20T08:42:18;101707.94;;;10.95;95.86
8653;BME280;4364;52.426;9.424;2022-09-20T08:44:53;101696.28;;;11.00;94.70
8653;BME280;4364;52.426;9.424;2022-09-20T08:47:26;101707.22;;;11.05;95.85
8653;BME280;4364;52.426;9.424;2022-09-20T08:49:54;101699.13;;;11.10;94.41
8653;BME280;4364;52.426;9.424;2022-09-20T08:52:29;101706.06;;;11.23;93.64
8653;BME280;4364;52.426;9.424;2022-09-20T08:55:11;101711.66;;;11.38;93.79
8653;BME280;4364;52.426;9.424;2022-09-20T08:57:38;101696.72;;;11.46;92.63
8653;BME280;4364;52.426;9.424;2022-09-20T09:00:05;101711.75;;;11.48;91.60
8653;BME280;4364;52.426;9.424;2022-09-20T09:02:32;101713.75;;;11.58;91.69
8653;BME280;4364;52.426;9.424;2022-09-20T09:05:01;101709.16;;;11.64;91.16
8653;BME280;4364;52.426;9.424;2022-09-20T09:07:28;101711.50;;;11.82;91.08
8653;BME280;4364;52.426;9.424;2022-09-20T09:09:55;101710.78;;;11.92;90.51
8653;BME280;4364;52.426;9.424;2022-09-20T09:12:25;101706.13;;;11.93;90.71
8653;BME280;4364;52.426;9.424;2022-09-20T09:14:57;101708.97;;;12.03;89.21
8653;BME280;4364;52.426;9.424;2022-09-20T09:17:27;101698.84;;;11.98;89.05
8653;BME280;4364;52.426;9.424;2022-09-20T09:19:59;101711.72;;;12.08;88.22
8653;BME280;4364;52.426;9.424;2022-09-20T09:22:40;101707.25;;;11.92;86.99
8653;BME280;4364;52.426;9.424;2022-09-20T09:30:35;101711.72;;;12.08;87.23
8653;BME280;4364;52.426;9.424;2022-09-20T09:33:30;101713.16;;;12.21;86.09
8653;BME280;4364;52.426;9.424;2022-09-20T09:36:12;101710.41;;;12.16;85.99
8653;BME280;4364;52.426;9.424;2022-09-20T09:38:43;101718.84;;;12.14;85.60
8653;BME280;4364;52.426;9.424;2022-09-20T09:41:29;101715.38;;;12.29;85.57
8653;BME280;4364;52.426;9.424;2022-09-20T09:46:33;101714.44;;;12.08;84.83
8653;BME280;4364;52.426;9.424;2022-09-20T09:52:02;101715.91;;;12.26;84.24
8653;BME280;4364;52.426;9.424;2022-09-20T09:54:45;101712.16;;;12.37;82.16
8653;BME280;4364;52.426;9.424;2022-09-20T10:03:04;101710.94;;;12.66;81.01
8653;BME280;4364;52.426;9.424;2022-09-20T10:08:15;101713.06;;;13.27;76.96
8653;BME280;4364;52.426;9.424;2022-09-20T10:11:15;101710.66;;;13.56;77.72
8653;BME280;4364;52.426;9.424;2022-09-20T10:16:56;101713.94;;;13.58;73.73
8653;BME280;4364;52.426;9.424;2022-09-20T10:25:19;101704.63;;;13.49;75.58
8653;BME280;4364;52.426;9.424;2022-09-20T10:28:03;101701.38;;;13.78;74.78
8653;BME280;4364;52.426;9.424;2022-09-20T10:38:44;101693.97;;;13.94;69.22
8653;BME280;4364;52.426;9.424;2022-09-20T10:41:27;101694.00;;;13.88;69.07
8653;BME280;4364;52.426;9.424;2022-09-20T10:44:32;101693.16;;;13.88;68.53
8653;BME280;4364;52.426;9.424;2022-09-20T10:47:18;101704.63;;;13.64;70.09
8653;BME280;4364;52.426;9.424;2022-09-20T10:53:02;101709.03;;;13.81;67.32
8653;BME280;4364;52.426;9.424;2022-09-20T10:55:45;101706.81;;;14.03;66.10
8653;BME280;4364;52.426;9.424;2022-09-20T11:01:46;101702.88;;;14.51;63.40
8653;BME280;4364;52.426;9.424;2022-09-20T11:05:01;101705.06;;;14.59;62.52
8653;BME280;4364;52.426;9.424;2022-09-20T11:07:15;101712.41;;;14.74;61.13
8653;BME280;4364;52.426;9.424;2022-09-20T11:09:48;101707.75;;;14.69;59.76
8653;BME280;4364;52.426;9.424;2022-09-20T11:12:27;101702.00;;;14.71;59.07
8653;BME280;4364;52.426;9.424;2022-09-20T11:17:55;101706.25;;;14.97;62.90
8653;BME280;4364;52.426;9.424;2022-09-20T11:20:28;101712.47;;;15.13;64.28
8653;BME280;4364;52.426;9.424;2022-09-20T11:23:03;101718.88;;;14.98;65.04
8653;BME280;4364;52.426;9.424;2022-09-20T11:25:42;101709.84;;;14.93;64.84
8653;BME280;4364;52.426;9.424;2022-09-20T11:28:21;101719.56;;;15.19;65.12
8653;BME280;4364;52.426;9.424;2022-09-20T11:33:36;101725.13;;;15.49;60.65
8653;BME280;4364;52.426;9.424;2022-09-20T11:36:16;101711.44;;;15.49;61.43
8653;BME280;4364;52.426;9.424;2022-09-20T11:41:23;101703.09;;;15.93;60.78
8653;BME280;4364;52.426;9.424;2022-09-20T11:43:53;101719.44;;;15.74;55.22
8653;BME280;4364;52.426;9.424;2022-09-20T11:46:25;101717.09;;;15.57;55.63
8653;BME280;4364;52.426;9.424;2022-09-20T11:54:50;101716.81;;;15.93;57.28
8653;BME280;4364;52.426;9.424;2022-09-20T11:57:22;101714.94;;;16.18;55.27
8653;BME280;4364;52.426;9.424;2022-09-20T11:59:53;101719.19;;;15.71;54.94
8653;BME280;4364;52.426;9.424;2022-09-20T12:02:46;101717.50;;;15.41;54.46
8653;BME280;4364;52.426;9.424;2022-09-20T12:05:44;101724.81;;;15.55;55.62
8653;BME280;4364;52.426;9.424;2022-09-20T12:08:23;101716.31;;;15.57;55.83
8653;BME280;4364;52.426;9.424;2022-09-20T12:11:16;101719.84;;;15.57;56.25
8653;BME280;4364;52.426;9.424;2022-09-20T12:14:00;101722.16;;;15.40;56.31
8653;BME280;4364;52.426;9.424;2022-09-20T12:16:39;101724.47;;;15.23;56.60
8653;BME280;4364;52.426;9.424;2022-09-20T12:24:31;101714.16;;;15.04;58.70
8653;BME280;4364;52.426;9.424;2022-09-20T12:27:18;101716.63;;;15.06;59.50
8653;BME280;4364;52.426;9.424;2022-09-20T12:32:39;101721.09;;;14.86;62.16
8653;BME280;4364;52.426;9.424;2022-09-20T12:41:03;101716.88;;;14.39;69.24
8653;BME280;4364;52.426;9.424;2022-09-20T12:43:31;101727.84;;;14.08;70.19
8653;BME280;4364;52.426;9.424;2022-09-20T12:45:59;101728.16;;;13.81;72.87
8653;BME280;4364;52.426;9.424;2022-09-20T12:48:36;101737.97;;;13.61;71.49
8653;BME280;4364;52.426;9.424;2022-09-20T12:51:24;101736.34;;;13.45;73.58
8653;BME280;4364;52.426;9.424;2022-09-20T12:54:16;101734.16;;;13.42;74.65
8653;BME280;4364;52.426;9.424;2022-09-20T12:56:43;101726.44;;;13.28;75.45
8653;BME280;4364;52.426;9.424;2022-09-20T12:59:23;101733.00;;;13.27;76.95
8653;BME280;4364;52.426;9.424;2022-09-20T13:05:01;101743.06;;;13.11;78.57
8653;BME280;4364;52.426;9.424;2022-09-20T13:07:38;101740.28;;;13.01;79.29
8653;BME280;4364;52.426;9.424;2022-09-20T13:10:24;101737.31;;;13.13;81.59
8653;BME280;4364;52.426;9.424;2022-09-20T13:12:56;101740.00;;;13.03;81.44
8653;BME280;4364;52.426;9.424;2022-09-20T13:15:24;101743.59;;;13.08;82.55
8653;BME280;4364;52.426;9.424;2022-09-20T13:17:52;101749.09;;;13.24;83.09
8653;BME280;4364;52.426;9.424;2022-09-20T13:20:23;101744.72;;;13.23;83.76
8653;BME280;4364;52.426;9.424;2022-09-20T13:22:52;101740.09;;;13.28;83.22
8653;BME280;4364;52.426;9.424;2022-09-20T13:25:25;101742.03;;;13.33;82.92
8653;BME280;4364;52.426;9.424;2022-09-20T13:28:08;101745.06;;;13.37;82.83
8653;BME280;4364;52.426;9.424;2022-09-20T13:30:35;101743.16;;;13.47;81.60
8653;BME280;4364;52.426;9.424;2022-09-20T13:33:22;101743.72;;;13.49;82.39
8653;BME280;4364;52.426;9.424;2022-09-20T13:35:55;101745.91;;;13.47;81.97
8653;BME280;4364;52.426;9.424;2022-09-20T13:38:27;101741.53;;;13.51;82.19
8653;BME280;4364;52.426;9.424;2022-09-20T13:41:03;101750.53;;;13.47;79.46
8653;BME280;4364;52.426;9.424;2022-09-20T13:43:36;101740.16;;;13.75;79.49
8653;BME280;4364;52.426;9.424;2022-09-20T13:46:11;101741.81;;;14.01;79.02
8653;BME280;4364;52.426;9.424;2022-09-20T13:48:39;101741.28;;;13.94;77.10
8653;BME280;4364;52.426;9.424;2022-09-20T13:51:17;101740.19;;;14.00;76.44
8653;BME280;4364;52.426;9.424;2022-09-20T13:53:44;101746.47;;;14.01;74.40
8653;BME280;4364;52.426;9.424;2022-09-20T13:56:24;101732.22;;;14.24;72.96
8653;BME280;4364;52.426;9.424;2022-09-20T13:58:53;101741.19;;;14.51;66.09
8653;BME280;4364;52.426;9.424;2022-09-20T14:01:35;101740.91;;;14.57;65.46
8653;BME280;4364;52.426;9.424;2022-09-20T14:04:14;101743.69;;;14.37;63.60
8653;BME280;4364;52.426;9.424;2022-09-20T14:06:42;101739.34;;;14.00;62.24
8653;BME280;4364;52.426;9.424;2022-09-20T14:09:22;101749.22;;;13.90;63.66
8653;BME280;4364;52.426;9.424;2022-09-20T14:11:52;101737.16;;;13.81;64.61
8653;BME280;4364;52.426;9.424;2022-09-20T14:14:20;101736.34;;;13.76;64.35
8653;BME280;4364;52.426;9.424;2022-09-20T14:16:49;101735.00;;;13.78;65.19
8653;BME280;4364;52.426;9.424;2022-09-20T14:19:19;101739.66;;;14.03;65.21
8653;BME280;4364;52.426;9.424;2022-09-20T14:21:47;101740.16;;;14.11;62.76
8653;BME280;4364;52.426;9.424;2022-09-20T14:24:32;101741.25;;;14.15;60.99
8653;BME280;4364;52.426;9.424;2022-09-20T14:29:49;101744.53;;;14.22;61.91
8653;BME280;4364;52.426;9.424;2022-09-20T14:35:02;101735.78;;;14.20;60.98
8653;BME280;4364;52.426;9.424;2022-09-20T14:37:47;101746.44;;;14.32;61.77
8653;BME280;4364;52.426;9.424;2022-09-20T14:40:18;101747.75;;;14.44;62.41
8653;BME280;4364;52.426;9.424;2022-09-20T14:42:49;101755.16;;;14.49;61.06
8653;BME280;4364;52.426;9.424;2022-09-20T14:45:34;101751.63;;;14.43;61.88
8653;BME280;4364;52.426;9.424;2022-09-20T14:48:04;101755.69;;;14.46;61.99
8653;BME280;4364;52.426;9.424;2022-09-20T14:50:39;101745.56;;;14.62;61.17
8653;BME280;4364;52.426;9.424;2022-09-20T14:55:38;101748.78;;;14.79;60.12
8653;BME280;4364;52.426;9.424;2022-09-20T14:58:10;101748.25;;;14.77;60.66
8653;BME280;4364;52.426;9.424;2022-09-20T15:01:01;101751.28;;;14.71;60.39
8653;BME280;4364;52.426;9.424;2022-09-20T15:03:33;101751.78;;;14.78;60.56
8653;BME280;4364;52.426;9.424;2022-09-20T15:06:02;101746.06;;;14.74;61.10
8653;BME280;4364;52.426;9.424;2022-09-20T15:08:29;101758.09;;;14.73;61.08
8653;BME280;4364;52.426;9.424;2022-09-20T15:10:58;101757.56;;;14.76;59.96
8653;BME280;4364;52.426;9.424;2022-09-20T15:13:24;101756.47;;;14.77;59.92
8653;BME280;4364;52.426;9.424;2022-09-20T15:15:53;101752.38;;;14.64;60.64
8653;BME280;4364;52.426;9.424;2022-09-20T15:18:25;101751.91;;;14.37;62.14
8653;BME280;4364;52.426;9.424;2022-09-20T15:20:53;101744.00;;;14.25;61.94
8653;BME280;4364;52.426;9.424;2022-09-20T15:23:20;101753.56;;;14.12;62.49
8653;BME280;4364;52.426;9.424;2022-09-20T15:25:52;101742.91;;;14.16;62.92
8653;BME280;4364;52.426;9.424;2022-09-20T15:28:26;101742.91;;;14.00;62.95
8653;BME280;4364;52.426;9.424;2022-09-20T15:30:54;101746.19;;;14.07;62.77
8653;BME280;4364;52.426;9.424;2022-09-20T15:33:22;101748.66;;;13.94;63.51
8653;BME280;4364;52.426;9.424;2022-09-20T15:35:49;101760.16;;;13.90;64.26
8653;BME280;4364;52.426;9.424;2022-09-20T15:38:17;101748.41;;;13.90;64.60
8653;BME280;4364;52.426;9.424;2022-09-20T15:40:45;101759.03;;;13.81;65.65
8653;BME280;4364;52.426;9.424;2022-09-20T15:43:14;101763.16;;;13.79;66.37
8653;BME280;4364;52.426;9.424;2022-09-20T15:45:49;101761.50;;;13.73;66.56
8653;BME280;4364;52.426;9.424;2022-09-20T15:48:17;101757.38;;;13.55;67.58
8653;BME280;4364;52.426;9.424;2022-09-20T15:51:06;101757.38;;;13.44;68.37
8653;BME280;4364;52.426;9.424;2022-09-20T15:53:35;101761.22;;;13.48;68.45
8653;BME280;4364;52.426;9.424;2022-09-20T15:56:06;101758.72;;;13.37;68.36
8653;BME280;4364;52.426;9.424;2022-09-20T15:58:46;101760.91;;;13.40;68.92
8653;BME280;4364;52.426;9.424;2022-09-20T16:01:14;101758.13;;;13.29;69.50
8653;BME280;4364;52.426;9.424;2022-09-20T16:03:43;101763.88;;;13.33;69.32
8653;BME280;4364;52.426;9.424;2022-09-20T16:06:12;101765.81;;;13.32;69.95
8653;BME280;4364;52.426;9.424;2022-09-20T16:08:41;101765.00;;;13.32;70.05
8653;BME280;4364;52.426;9.424;2022-09-20T16:11:11;101769.56;;;13.26;70.47
8653;BME280;4364;52.426;9.424;2022-09-20T16:13:38;101776.16;;;13.25;71.88
8653;BME280;4364;52.426;9.424;2022-09-20T16:16:06;101769.66;;;13.37;71.10
8653;BME280;4364;52.426;9.424;2022-09-20T16:18:35;101769.13;;;13.50;71.22
8653;BME280;4364;52.426;9.424;2022-09-20T16:21:21;101773.50;;;13.51;71.52
8653;BME280;4364;52.426;9.424;2022-09-20T16:24:07;101786.59;;;13.49;71.48
8653;BME280;4364;52.426;9.424;2022-09-20T16:26:35;101788.22;;;13.40;72.04
8653;BME280;4364;52.426;9.424;2022-09-20T16:29:02;101789.06;;;13.45;72.19
8653;BME280;4364;52.426;9.424;2022-09-20T16:34:24;101793.88;;;13.23;73.67
8653;BME280;4364;52.426;9.424;2022-09-20T16:37:02;101790.59;;;13.21;74.19
8653;BME280;4364;52.426;9.424;2022-09-20T16:39:31;101799.91;;;13.25;73.84
8653;BME280;4364;52.426;9.424;2022-09-20T16:42:03;101796.59;;;13.18;74.26
8653;BME280;4364;52.426;9.424;2022-09-20T16:44:31;101803.41;;;13.10;74.94
8653;BME280;4364;52.426;9.424;2022-09-20T16:47:00;101800.06;;;13.03;75.01
8653;BME280;4364;52.426;9.424;2022-09-20T16:49:27;101795.44;;;12.98;75.51
8653;BME280;4364;52.426;9.424;2022-09-20T16:51:55;101796.72;;;12.80;76.57
8653;BME280;4364;52.426;9.424;2022-09-20T16:54:21;101802.41;;;12.73;76.98
8653;BME280;4364;52.426;9.424;2022-09-20T16:56:49;101813.59;;;12.72;77.33
8653;BME280;4364;52.426;9.424;2022-09-20T16:59:18;101811.91;;;12.66;77.42
8653;BME280;4364;52.426;9.424;2022-09-20T17:01:47;101809.41;;;12.59;77.89
8653;BME280;4364;52.426;9.424;2022-09-20T17:04:14;101816.97;;;12.47;78.58
8653;BME280;4364;52.426;9.424;2022-09-20T17:06:44;101816.94;;;12.41;78.45
8653;BME280;4364;52.426;9.424;2022-09-20T17:09:12;101816.28;;;12.29;79.53
8653;BME280;4364;52.426;9.424;2022-09-20T17:11:47;101815.44;;;12.23;79.55
8653;BME280;4364;52.426;9.424;2022-09-20T17:14:18;101818.09;;;12.13;79.62
8653;BME280;4364;52.426;9.424;2022-09-20T17:16:46;101825.72;;;12.11;80.06
8653;BME280;4364;52.426;9.424;2022-09-20T17:19:18;101830.59;;;12.09;80.06
8653;BME280;4364;52.426;9.424;2022-09-20T17:21:47;101826.19;;;12.03;80.26
8653;BME280;4364;52.426;9.424;2022-09-20T17:24:21;101839.09;;;11.91;81.18
8653;BME280;4364;52.426;9.424;2022-09-20T17:26:49;101841.47;;;11.82;81.73
8653;BME280;4364;52.426;9.424;2022-09-20T17:29:17;101843.59;;;11.75;81.85